createdAt,value
2018-10-09T00:02:25.909Z,10.98
2018-10-09T00:04:55.949Z,13.18
2018-10-09T00:07:25.964Z,12.07
2018-10-09T00:09:55.871Z,13.68
2018-10-09T00:12:25.990Z,12.15
2018-10-09T00:14:56.010Z,12.03
2018-10-09T00:17:25.932Z,14.95
2018-10-09T00:19:55.917Z,10.13
2018-10-09T00:22:25.959Z,12.53
2018-10-09T00:24:55.977Z,11.45
2018-10-09T00:27:26.011Z,11.45
2018-10-09T00:29:56.118Z,13.70
2018-10-09T00:32:26.051Z,11.60
2018-10-09T00:34:55.984Z,11.20
2018-10-09T00:37:25.971Z,14.07
2018-10-09T00:39:55.987Z,13.85
2018-10-09T00:42:26.090Z,12.43
2018-10-09T00:44:56.004Z,12.77
2018-10-09T00:47:26.146Z,14.38
2018-10-09T00:49:56.170Z,13.20
2018-10-09T00:52:26.088Z,15.10
2018-10-09T00:54:56.145Z,12.37
2018-10-09T00:57:26.122Z,11.93
2018-10-09T00:59:56.013Z,13.13
2018-10-09T01:02:26.220Z,12.68
2018-10-09T01:04:56.189Z,14.63
2018-10-09T01:07:26.024Z,14.18
2018-10-09T01:09:56.076Z,15.70
2018-10-09T01:12:26.125Z,15.63
2018-10-09T01:14:56.145Z,14.28
2018-10-09T01:17:26.074Z,14.03
2018-10-09T01:19:56.230Z,12.85
2018-10-09T01:22:26.197Z,11.95
2018-10-09T01:24:56.097Z,14.85
2018-10-09T01:27:26.144Z,16.27
2018-10-09T01:29:56.157Z,16.30
2018-10-09T01:32:26.144Z,12.35
2018-10-09T01:34:56.221Z,14.78
2018-10-09T01:37:26.258Z,14.18
2018-10-09T01:39:56.158Z,12.95
2018-10-09T01:42:26.115Z,14.03
2018-10-09T01:44:56.187Z,14.70
2018-10-09T01:47:26.158Z,14.90
2018-10-09T01:49:56.260Z,13.85
2018-10-09T01:52:26.154Z,14.00
2018-10-09T01:54:56.127Z,15.32
2018-10-09T01:57:26.224Z,14.15
2018-10-09T01:59:56.215Z,15.08
2018-10-09T02:02:26.300Z,13.28
2018-10-09T02:04:56.160Z,15.07
2018-10-09T02:07:26.306Z,13.40
2018-10-09T02:09:56.286Z,18.62
2018-10-09T02:12:26.210Z,15.88
2018-10-09T02:14:56.192Z,15.45
2018-10-09T02:17:26.406Z,15.63
2018-10-09T02:19:56.209Z,13.80
2018-10-09T02:22:26.215Z,14.95
2018-10-09T02:24:56.345Z,17.98
2018-10-09T02:27:26.213Z,15.80
2018-10-09T02:29:56.289Z,15.40
2018-10-09T02:32:26.454Z,17.30
2018-10-09T02:34:57.098Z,18.30
2018-10-09T02:37:26.473Z,16.20
2018-10-09T02:39:56.355Z,16.77
2018-10-09T02:42:26.209Z,16.30
2018-10-09T02:44:56.300Z,16.40
2018-10-09T02:47:26.305Z,16.25
2018-10-09T02:49:56.341Z,16.93
2018-10-09T02:52:26.337Z,18.00
2018-10-09T02:54:56.374Z,14.68
2018-10-09T02:57:26.361Z,14.65
2018-10-09T02:59:56.342Z,16.20
2018-10-09T03:02:26.389Z,16.62
2018-10-09T03:04:56.348Z,16.23
2018-10-09T03:07:26.303Z,13.55
2018-10-09T03:09:56.372Z,16.10
2018-10-09T03:12:26.442Z,17.37
2018-10-09T03:14:56.551Z,18.17
2018-10-09T03:17:26.362Z,17.45
2018-10-09T03:19:56.374Z,17.45
2018-10-09T03:22:26.555Z,16.90
2018-10-09T03:24:57.971Z,18.60
2018-10-09T03:27:27.548Z,18.05
2018-10-09T03:29:56.908Z,18.87
2018-10-09T03:32:26.374Z,17.35
2018-10-09T03:34:56.559Z,17.60
2018-10-09T03:37:26.406Z,15.63
2018-10-09T03:39:56.431Z,17.23
2018-10-09T03:42:26.428Z,19.55
2018-10-09T03:44:56.424Z,19.52
2018-10-09T03:47:26.483Z,16.32
2018-10-09T03:49:56.480Z,18.52
2018-10-09T03:52:26.490Z,22.15
2018-10-09T03:54:56.414Z,18.45
2018-10-09T03:57:26.430Z,20.55
2018-10-09T03:59:56.388Z,17.75
2018-10-09T04:02:26.377Z,19.35
2018-10-09T04:04:56.422Z,19.60
2018-10-09T04:07:26.392Z,18.40
2018-10-09T04:09:56.469Z,17.50
2018-10-09T04:12:26.528Z,18.50
2018-10-09T04:15:00.687Z,17.37
2018-10-09T04:17:30.001Z,19.80
2018-10-09T04:19:59.279Z,23.27
2018-10-09T04:22:28.610Z,19.27
2018-10-09T04:24:57.943Z,19.73
2018-10-09T04:27:27.269Z,17.43
2018-10-09T04:29:56.886Z,20.63
2018-10-09T04:32:26.474Z,22.58
2018-10-09T04:34:56.518Z,20.52
2018-10-09T04:37:26.479Z,18.52
2018-10-09T04:39:56.481Z,17.30
2018-10-09T04:42:26.575Z,19.35
2018-10-09T04:44:56.526Z,18.50
2018-10-09T04:47:26.587Z,22.55
2018-10-09T04:49:56.533Z,19.07
2018-10-09T04:52:26.572Z,20.75
2018-10-09T04:54:56.567Z,19.02
2018-10-09T04:57:26.583Z,22.13
2018-10-09T04:59:56.614Z,17.98
2018-10-09T05:02:26.561Z,19.45
2018-10-09T05:04:56.585Z,20.60
2018-10-09T05:07:26.560Z,22.35
2018-10-09T05:09:56.630Z,21.87
2018-10-09T05:12:26.609Z,21.20
2018-10-09T05:14:56.531Z,23.07
2018-10-09T05:17:26.621Z,22.43
2018-10-09T05:19:56.614Z,20.45
2018-10-09T05:22:26.640Z,23.70
2018-10-09T05:24:56.586Z,21.25
2018-10-09T05:27:26.561Z,21.45
2018-10-09T05:29:56.755Z,21.15
2018-10-09T05:32:26.541Z,20.72
2018-10-09T05:34:56.573Z,23.45
2018-10-09T05:37:26.726Z,20.02
2018-10-09T05:39:56.626Z,21.42
2018-10-09T05:42:26.595Z,22.07
2018-10-09T05:44:56.729Z,22.13
2018-10-09T05:47:26.599Z,25.23
2018-10-09T05:49:56.670Z,21.03
2018-10-09T05:52:26.843Z,22.67
2018-10-09T05:54:56.675Z,21.87
2018-10-09T05:57:26.704Z,21.60
2018-10-09T05:59:56.702Z,23.47
2018-10-09T06:02:26.737Z,25.37
2018-10-09T06:04:56.751Z,20.45
2018-10-09T06:07:26.871Z,21.55
2018-10-09T06:09:56.630Z,22.80
2018-10-09T06:12:26.746Z,20.20
2018-10-09T06:14:56.760Z,20.90
2018-10-09T06:17:26.708Z,24.55
2018-10-09T06:19:56.755Z,24.90
2018-10-09T06:22:26.738Z,18.48
2018-10-09T06:24:56.723Z,22.87
2018-10-09T06:27:26.712Z,23.73
2018-10-09T06:29:56.719Z,20.20
2018-10-09T06:32:26.778Z,20.27
2018-10-09T06:34:56.886Z,21.73
2018-10-09T06:37:26.717Z,25.23
2018-10-09T06:39:56.802Z,22.95
2018-10-09T06:42:26.755Z,24.63
2018-10-09T06:44:56.774Z,26.33
2018-10-09T06:47:27.096Z,23.32
2018-10-09T06:49:56.815Z,21.57
2018-10-09T06:52:26.865Z,21.17
2018-10-09T06:54:56.826Z,23.12
2018-10-09T06:57:26.831Z,22.00
2018-10-09T06:59:56.825Z,23.55
2018-10-09T07:02:26.865Z,24.85
2018-10-09T07:04:56.821Z,24.87
2018-10-09T07:07:26.907Z,25.57
2018-10-09T07:09:56.755Z,25.57
2018-10-09T07:12:26.817Z,27.95
2018-10-09T07:14:56.813Z,23.83
2018-10-09T07:17:27.107Z,24.92
2018-10-09T07:19:56.906Z,24.45
2018-10-09T07:22:26.879Z,28.67
2018-10-09T07:24:56.919Z,28.25
2018-10-09T07:27:26.865Z,24.67
2018-10-09T07:29:56.811Z,22.98
2018-10-09T07:32:26.934Z,23.52
2018-10-09T07:34:56.892Z,23.87
2018-10-09T07:37:27.048Z,23.35
2018-10-09T07:39:56.933Z,24.67
2018-10-09T07:42:26.859Z,26.82
2018-10-09T07:44:56.915Z,22.35
2018-10-09T07:47:26.966Z,22.62
2018-10-09T07:49:56.953Z,27.07
2018-10-09T07:52:27.182Z,24.80
2018-10-09T07:54:56.933Z,23.50
2018-10-09T07:57:26.977Z,24.47
2018-10-09T07:59:56.920Z,24.15
2018-10-09T08:02:26.936Z,25.32
2018-10-09T08:04:57.030Z,29.13
2018-10-09T08:07:27.014Z,23.95
2018-10-09T08:09:56.952Z,25.23
2018-10-09T08:12:26.963Z,26.73
2018-10-09T08:14:56.882Z,25.08
2018-10-09T08:17:26.865Z,23.20
2018-10-09T08:19:56.905Z,24.63
2018-10-09T08:22:27.026Z,25.65
2018-10-09T08:24:56.925Z,25.40
2018-10-09T08:27:26.941Z,21.52
2018-10-09T08:29:56.903Z,23.92
2018-10-09T08:32:26.974Z,22.00
2018-10-09T08:34:56.960Z,21.50
2018-10-09T08:37:27.129Z,24.32
2018-10-09T08:39:56.969Z,21.62
2018-10-09T08:42:27.138Z,23.40
2018-10-09T08:44:57.027Z,21.30
2018-10-09T08:47:27.022Z,20.15
2018-10-09T08:49:57.058Z,18.40
2018-10-09T08:52:27.015Z,22.13
2018-10-09T08:54:57.163Z,18.98
2018-10-09T08:57:27.188Z,21.90
2018-10-09T08:59:56.985Z,21.80
2018-10-09T09:02:26.970Z,19.48
2018-10-09T09:04:57.091Z,22.50
2018-10-09T09:07:27.036Z,20.97
2018-10-09T09:09:57.087Z,23.40
2018-10-09T09:12:27.123Z,22.65
2018-10-09T09:14:57.030Z,24.20
2018-10-09T09:17:27.125Z,25.85
2018-10-09T09:19:57.061Z,22.95
2018-10-09T09:22:27.122Z,23.98
2018-10-09T09:24:57.153Z,27.42
2018-10-09T09:27:27.109Z,24.53
2018-10-09T09:29:57.207Z,21.85
2018-10-09T09:32:27.098Z,25.40
2018-10-09T09:34:57.124Z,25.97
2018-10-09T09:37:27.209Z,23.02
2018-10-09T09:39:57.225Z,24.37
2018-10-09T09:42:27.115Z,23.17
2018-10-09T09:44:57.195Z,24.25
2018-10-09T09:47:27.134Z,25.57
2018-10-09T09:49:57.120Z,24.70
2018-10-09T09:52:27.255Z,26.73
2018-10-09T09:54:57.154Z,25.27
2018-10-09T09:57:27.128Z,27.40
2018-10-09T09:59:57.154Z,25.70
2018-10-09T10:02:27.258Z,23.52
2018-10-09T10:04:57.133Z,27.05
2018-10-09T10:07:27.200Z,25.70
2018-10-09T10:09:57.164Z,21.55
2018-10-09T10:12:27.150Z,24.90
2018-10-09T10:14:57.183Z,25.67
2018-10-09T10:17:27.276Z,29.48
2018-10-09T10:19:57.157Z,25.92
2018-10-09T10:22:27.430Z,24.40
2018-10-09T10:24:57.238Z,25.32
2018-10-09T10:27:27.298Z,29.67
2018-10-09T10:29:57.246Z,27.82
2018-10-09T10:32:27.292Z,28.17
2018-10-09T10:34:57.323Z,26.33
2018-10-09T10:37:27.232Z,26.85
2018-10-09T10:39:57.232Z,23.35
2018-10-09T10:42:27.245Z,22.77
2018-10-09T10:44:57.468Z,24.03
2018-10-09T10:47:27.276Z,26.03
2018-10-09T10:49:57.392Z,24.40
2018-10-09T10:52:27.315Z,25.45
2018-10-09T10:54:57.302Z,26.55
2018-10-09T10:57:27.240Z,25.35
2018-10-09T10:59:57.231Z,26.55
2018-10-09T11:02:27.305Z,26.87
2018-10-09T11:04:57.393Z,26.17
2018-10-09T11:07:27.486Z,25.92
2018-10-09T11:09:57.363Z,25.80
2018-10-09T11:12:27.241Z,27.95
2018-10-09T11:14:57.397Z,27.90
2018-10-09T11:17:27.521Z,28.80
2018-10-09T11:19:57.293Z,26.77
2018-10-09T11:22:27.372Z,26.12
2018-10-09T11:24:57.302Z,24.85
2018-10-09T11:27:27.450Z,25.95
2018-10-09T11:29:57.388Z,26.77
2018-10-09T11:32:27.599Z,24.65
2018-10-09T11:34:57.438Z,24.95
2018-10-09T11:37:27.436Z,27.60
2018-10-09T11:39:57.372Z,24.87
2018-10-09T11:42:27.372Z,28.12
2018-10-09T11:44:57.455Z,24.95
2018-10-09T11:47:27.423Z,24.15
2018-10-09T11:49:57.439Z,27.95
2018-10-09T11:52:28.565Z,29.75
2018-10-09T11:54:57.907Z,23.10
2018-10-09T11:57:28.533Z,27.00
2018-10-09T11:59:57.901Z,24.33
2018-10-09T12:02:27.465Z,25.75
2018-10-09T12:04:57.439Z,25.20
2018-10-09T12:07:27.494Z,25.25
2018-10-09T12:09:57.551Z,22.50
2018-10-09T12:12:27.533Z,21.85
2018-10-09T12:14:57.474Z,22.70
2018-10-09T12:17:27.482Z,26.00
2018-10-09T12:19:57.489Z,23.87
2018-10-09T12:22:27.423Z,22.00
2018-10-09T12:24:57.529Z,27.37
2018-10-09T12:27:27.546Z,21.97
2018-10-09T12:29:57.485Z,20.52
2018-10-09T12:32:27.518Z,22.75
2018-10-09T12:34:57.591Z,19.87
2018-10-09T12:37:27.528Z,20.80
2018-10-09T12:39:57.560Z,22.98
2018-10-09T12:42:27.606Z,19.17
2018-10-09T12:44:57.584Z,20.20
2018-10-09T12:47:27.579Z,21.45
2018-10-09T12:49:57.881Z,19.23
2018-10-09T12:52:27.588Z,21.55
2018-10-09T12:54:57.716Z,18.40
2018-10-09T12:57:27.580Z,18.98
2018-10-09T12:59:57.534Z,21.00
2018-10-09T13:02:27.605Z,18.98
2018-10-09T13:04:57.490Z,19.67
2018-10-09T13:07:27.638Z,16.52
2018-10-09T13:09:57.579Z,18.85
2018-10-09T13:12:27.590Z,18.90
2018-10-09T13:14:57.705Z,18.07
2018-10-09T13:17:27.641Z,15.13
2018-10-09T13:19:57.732Z,20.52
2018-10-09T13:22:27.951Z,18.73
2018-10-09T13:24:58.793Z,16.15
2018-10-09T13:27:28.270Z,12.43
2018-10-09T13:29:57.706Z,16.73
2018-10-09T13:32:27.759Z,17.35
2018-10-09T13:34:57.814Z,15.88
2018-10-09T13:37:27.622Z,19.42
2018-10-09T13:39:57.722Z,15.50
2018-10-09T13:42:27.760Z,16.60
2018-10-09T13:44:57.654Z,17.77
2018-10-09T13:47:27.784Z,14.55
2018-10-09T13:49:57.598Z,13.08
2018-10-09T13:52:27.694Z,12.37
2018-10-09T13:54:57.699Z,13.30
2018-10-09T13:57:27.660Z,15.33
2018-10-09T13:59:57.681Z,16.67
2018-10-09T14:02:27.626Z,14.38
2018-10-09T14:04:57.674Z,12.88
2018-10-09T14:07:27.737Z,13.93
2018-10-09T14:09:57.787Z,9.90
2018-10-09T14:12:27.717Z,13.22
2018-10-09T14:14:57.761Z,13.20
2018-10-09T14:17:27.806Z,12.13
2018-10-09T14:19:57.713Z,15.85
2018-10-09T14:22:27.732Z,12.82
2018-10-09T14:24:57.886Z,14.30
2018-10-09T14:27:27.794Z,11.60
2018-10-09T14:29:57.716Z,11.97
2018-10-09T14:32:27.838Z,13.93
2018-10-09T14:34:57.776Z,12.55
2018-10-09T14:37:27.672Z,16.10
2018-10-09T14:39:57.726Z,12.80
2018-10-09T14:42:27.780Z,11.35
2018-10-09T14:44:57.877Z,13.38
2018-10-09T14:47:27.738Z,14.30
2018-10-09T14:49:57.799Z,14.95
2018-10-09T14:52:27.810Z,13.18
2018-10-09T14:54:57.890Z,14.93
2018-10-09T14:57:27.753Z,16.20
2018-10-09T14:59:57.886Z,12.53
2018-10-09T15:02:27.855Z,13.83
2018-10-09T15:04:57.816Z,14.18
2018-10-09T15:07:27.787Z,16.02
2018-10-09T15:09:57.824Z,13.45
2018-10-09T15:12:27.921Z,11.90
2018-10-09T15:14:57.889Z,15.43
2018-10-09T15:17:27.866Z,17.67
2018-10-09T15:20:00.850Z,14.63
2018-10-09T15:22:30.178Z,14.37
2018-10-09T15:24:59.554Z,15.43
2018-10-09T15:27:28.901Z,16.23
2018-10-09T15:29:58.234Z,14.80
2018-10-09T15:32:27.878Z,14.25
2018-10-09T15:34:58.041Z,13.68
2018-10-09T15:37:27.965Z,16.25
2018-10-09T15:39:57.847Z,15.75
2018-10-09T15:42:27.885Z,17.95
2018-10-09T15:44:58.071Z,19.50
2018-10-09T15:47:27.923Z,20.92
2018-10-09T15:49:58.118Z,19.02
2018-10-09T15:52:27.925Z,17.80
2018-10-09T15:54:58.012Z,19.95
2018-10-09T15:57:27.901Z,18.90
2018-10-09T15:59:57.909Z,19.42
2018-10-09T16:02:28.004Z,18.55
2018-10-09T16:04:58.046Z,18.57
2018-10-09T16:07:28.038Z,16.73
2018-10-09T16:09:57.991Z,17.85
2018-10-09T16:12:28.042Z,17.85
2018-10-09T16:14:57.927Z,17.30
2018-10-09T16:17:28.032Z,19.77
2018-10-09T16:19:58.107Z,19.17
2018-10-09T16:22:28.061Z,18.20
2018-10-09T16:24:58.017Z,15.40
2018-10-09T16:27:27.939Z,19.37
2018-10-09T16:29:58.010Z,19.17
2018-10-09T16:32:28.207Z,14.75
2018-10-09T16:34:58.034Z,19.67
2018-10-09T16:37:28.036Z,16.57
2018-10-09T16:39:58.064Z,17.32
2018-10-09T16:42:28.112Z,20.77
2018-10-09T16:44:58.011Z,18.55
2018-10-09T16:47:28.136Z,16.23
2018-10-09T16:49:58.024Z,18.12
2018-10-09T16:52:28.019Z,15.40
2018-10-09T16:54:57.979Z,18.90
2018-10-09T16:57:28.090Z,16.82
2018-10-09T16:59:58.166Z,17.90
2018-10-09T17:02:28.012Z,15.58
2018-10-09T17:04:58.034Z,16.45
2018-10-09T17:07:28.014Z,17.57
2018-10-09T17:09:58.079Z,17.27
2018-10-09T17:12:28.181Z,17.27
2018-10-09T17:14:58.103Z,15.90
2018-10-09T17:17:28.111Z,14.25
2018-10-09T17:19:58.071Z,18.65
2018-10-09T17:22:28.187Z,17.80
2018-10-09T17:24:58.134Z,19.15
2018-10-09T17:27:28.149Z,16.95
2018-10-09T17:29:58.150Z,18.12
2018-10-09T17:32:28.153Z,19.60
2018-10-09T17:34:58.123Z,16.67
2018-10-09T17:37:28.147Z,21.23
2018-10-09T17:39:58.166Z,25.23
2018-10-09T17:42:28.159Z,20.83
2018-10-09T17:44:58.233Z,20.90
2018-10-09T17:47:28.106Z,21.02
2018-10-09T17:49:58.188Z,21.20
2018-10-09T17:52:28.158Z,20.23
2018-10-09T17:54:58.090Z,19.10
2018-10-09T17:57:28.212Z,21.97
2018-10-09T17:59:58.253Z,22.52
2018-10-09T18:02:28.352Z,20.77
2018-10-09T18:04:58.177Z,22.60
2018-10-09T18:07:34.822Z,18.42
2018-10-09T18:10:04.181Z,23.30
2018-10-09T18:12:33.512Z,18.50
2018-10-09T18:15:02.937Z,19.50
2018-10-09T18:17:32.215Z,18.45
2018-10-09T18:20:01.569Z,19.70
2018-10-09T18:22:30.915Z,20.97
2018-10-09T18:25:00.277Z,18.27
2018-10-09T18:27:29.691Z,22.90
2018-10-09T18:29:59.042Z,25.80
2018-10-09T18:32:28.489Z,21.23
2018-10-09T18:34:58.239Z,18.25
2018-10-09T18:37:28.299Z,19.70
2018-10-09T18:39:58.290Z,19.48
2018-10-09T18:42:28.387Z,18.70
2018-10-09T18:44:58.278Z,21.43
2018-10-09T18:47:33.384Z,21.68
2018-10-09T18:50:02.764Z,19.73
2018-10-09T18:52:32.146Z,21.90
2018-10-09T18:55:01.518Z,25.53
2018-10-09T18:57:30.905Z,20.97
2018-10-09T19:00:00.235Z,18.50
2018-10-09T19:02:29.626Z,20.13
2018-10-09T19:04:58.971Z,20.70
2018-10-09T19:07:28.361Z,19.83
2018-10-09T19:09:58.272Z,20.72
2018-10-09T19:12:28.377Z,22.13
2018-10-09T19:14:58.484Z,21.02
2018-10-09T19:17:28.381Z,22.13
2018-10-09T19:19:58.318Z,23.18
2018-10-09T19:22:28.407Z,20.62
2018-10-09T19:24:58.658Z,24.23
2018-10-09T19:27:28.511Z,25.95
2018-10-09T19:29:58.496Z,23.07
2018-10-09T19:32:28.634Z,27.85
2018-10-09T19:34:58.390Z,22.37
2018-10-09T19:37:28.354Z,25.08
2018-10-09T19:39:58.464Z,25.27
2018-10-09T19:42:28.386Z,26.25
2018-10-09T19:44:58.387Z,22.47
2018-10-09T19:47:32.433Z,22.60
2018-10-09T19:50:01.769Z,24.20
2018-10-09T19:52:31.138Z,29.40
2018-10-09T19:55:00.477Z,25.57
2018-10-09T19:57:29.978Z,21.93
2018-10-09T19:59:59.371Z,27.25
2018-10-09T20:02:28.772Z,28.40
2018-10-09T20:04:58.542Z,30.65
2018-10-09T20:07:28.574Z,26.40
2018-10-09T20:09:58.542Z,27.17
2018-10-09T20:12:28.534Z,21.97
2018-10-09T20:14:58.476Z,24.87
2018-10-09T20:17:28.468Z,25.63
2018-10-09T20:19:58.500Z,23.22
2018-10-09T20:22:28.426Z,21.77
2018-10-09T20:24:58.467Z,20.70
2018-10-09T20:27:28.534Z,19.80
2018-10-09T20:29:58.509Z,20.02
2018-10-09T20:32:28.548Z,18.62
2018-10-09T20:34:58.561Z,22.02
2018-10-09T20:37:28.590Z,22.30
2018-10-09T20:39:58.551Z,18.92
2018-10-09T20:42:28.545Z,20.02
2018-10-09T20:44:58.529Z,21.05
2018-10-09T20:47:33.653Z,23.70
2018-10-09T20:50:03.111Z,23.65
2018-10-09T20:52:32.453Z,21.67
2018-10-09T20:55:01.791Z,22.57
2018-10-09T20:57:31.391Z,22.70
2018-10-09T21:00:00.773Z,23.27
2018-10-09T21:02:30.166Z,25.53
2018-10-09T21:04:59.575Z,23.70
2018-10-09T21:07:28.988Z,25.03
2018-10-09T21:09:58.562Z,27.45
2018-10-09T21:12:28.610Z,23.73
2018-10-09T21:14:58.705Z,26.23
2018-10-09T21:17:28.665Z,29.02
2018-10-09T21:19:58.693Z,24.70
2018-10-09T21:22:28.658Z,23.45
2018-10-09T21:24:58.623Z,24.75
2018-10-09T21:27:28.767Z,20.08
2018-10-09T21:29:58.704Z,21.33
2018-10-09T21:32:28.690Z,21.95
2018-10-09T21:34:58.648Z,23.75
2018-10-09T21:37:28.706Z,24.05
2018-10-09T21:39:58.730Z,22.37
2018-10-09T21:42:28.795Z,20.10
2018-10-09T21:44:58.696Z,25.20
2018-10-09T21:47:28.749Z,24.47
2018-10-09T21:49:58.736Z,23.62
2018-10-09T21:52:28.687Z,27.60
2018-10-09T21:54:58.661Z,23.97
2018-10-09T21:57:28.677Z,25.43
2018-10-09T21:59:58.778Z,53.80
2018-10-09T22:02:28.717Z,52.25
2018-10-09T22:04:58.716Z,62.27
2018-10-09T22:07:28.777Z,66.42
2018-10-09T22:09:58.799Z,68.80
2018-10-09T22:12:28.829Z,71.35
2018-10-09T22:14:58.790Z,63.02
2018-10-09T22:17:29.484Z,54.58
2018-10-09T22:19:59.310Z,47.97
2018-10-09T22:22:28.836Z,35.30
2018-10-09T22:24:58.804Z,28.90
2018-10-09T22:27:28.861Z,32.17
2018-10-09T22:29:58.771Z,30.17
2018-10-09T22:32:28.911Z,25.92
2018-10-09T22:34:58.826Z,24.40
2018-10-09T22:37:28.800Z,28.10
2018-10-09T22:40:01.439Z,29.75
2018-10-09T22:42:30.807Z,27.93
2018-10-09T22:45:00.214Z,27.37
2018-10-09T22:47:29.620Z,25.13
2018-10-09T22:49:59.009Z,27.53
2018-10-09T22:52:28.864Z,28.73
2018-10-09T22:54:58.853Z,27.55
2018-10-09T22:57:28.896Z,24.70
2018-10-09T22:59:58.800Z,26.27
2018-10-09T23:02:28.886Z,30.12
2018-10-09T23:04:58.921Z,27.40
2018-10-09T23:07:28.838Z,28.35
2018-10-09T23:09:58.854Z,25.82
2018-10-09T23:12:28.952Z,26.23
2018-10-09T23:14:58.864Z,28.00
2018-10-09T23:17:29.007Z,29.25
2018-10-09T23:19:58.945Z,27.67
2018-10-09T23:22:28.970Z,29.40
2018-10-09T23:24:58.920Z,29.37
2018-10-09T23:27:28.796Z,31.25
2018-10-09T23:29:59.456Z,30.08
2018-10-09T23:32:29.014Z,32.35
2018-10-09T23:34:58.962Z,30.72
2018-10-09T23:37:29.043Z,29.48
2018-10-09T23:39:59.072Z,28.95
2018-10-09T23:42:28.984Z,27.30
2018-10-09T23:44:59.094Z,26.10
2018-10-09T23:47:29.026Z,27.95
2018-10-09T23:49:58.976Z,30.23
2018-10-09T23:52:29.014Z,31.13
2018-10-09T23:54:59.087Z,27.27
2018-10-09T23:57:29.079Z,29.57
2018-10-09T23:59:59.004Z,27.60
